Time;durP1;ratioP1;P1;durP2;ratioP2;P2;SDS_P1;SDS_P2;PMS_P1;PMS_P2;Temp;Humidity;BMP_temperature;BMP_pressure;BME280_temperature;BME280_humidity;BME280_pressure;Samples;Min_cycle;Max_cycle;Signal;HPM_P1;HPM_P2
2023/01/13 00:00:58;;;;;;;2.17;0.63;;;;;;;9.25;100.00;99737.75;6124397;23;20017;-79
2023/01/13 00:03:25;;;;;;;2.05;0.50;;;;;;;8.94;100.00;99688.31;6123879;23;20025;-80
2023/01/13 00:05:52;;;;;;;1.73;0.70;;;;;;;9.25;100.00;99735.97;6123822;23;20022;-79
2023/01/13 00:08:18;;;;;;;3.33;0.80;;;;;;;9.21;100.00;99712.44;6122866;23;20022;-80
2023/01/13 00:10:47;;;;;;;2.72;0.65;;;;;;;9.06;100.00;99683.25;6123821;23;20018;-79
2023/01/13 00:13:14;;;;;;;4.13;0.70;;;;;;;9.02;100.00;99667.63;6124383;23;20483;-80
2023/01/13 00:15:41;;;;;;;1.17;0.60;;;;;;;9.30;100.00;99722.50;6125037;23;20487;-80
2023/01/13 00:18:07;;;;;;;2.25;0.70;;;;;;;9.15;100.00;99710.97;6124811;23;20018;-79
2023/01/13 00:20:34;;;;;;;2.85;0.80;;;;;;;8.90;100.00;99665.63;6125085;23;20113;-80
2023/01/13 00:23:03;;;;;;;3.10;0.52;;;;;;;9.02;100.00;99680.84;6125398;23;20014;-80
2023/01/13 00:25:29;;;;;;;3.88;0.85;;;;;;;9.07;100.00;99694.66;6123284;23;20025;-80
2023/01/13 00:27:56;;;;;;;1.80;0.70;;;;;;;9.23;100.00;99700.84;6124008;23;20104;-81
2023/01/13 00:30:23;;;;;;;1.35;0.60;;;;;;;8.73;100.00;99601.38;6123914;23;20110;-80
2023/01/13 00:32:50;;;;;;;2.92;0.73;;;;;;;9.10;100.00;99676.03;6123683;23;20024;-80
2023/01/13 00:35:16;;;;;;;2.50;0.80;;;;;;;9.05;100.00;99662.19;6124549;23;20018;-83
2023/01/13 00:37:43;;;;;;;1.98;0.80;;;;;;;9.02;100.00;99657.06;6124385;23;20025;-82
2023/01/13 00:40:10;;;;;;;2.53;0.90;;;;;;;8.73;100.00;99598.72;6124979;23;20425;-81
2023/01/13 00:45:22;;;;;;;3.28;0.70;;;;;;;8.99;100.00;99654.59;6124394;23;20018;-82
2023/01/13 00:47:49;;;;;;;2.20;0.70;;;;;;;8.92;100.00;99627.66;6124659;23;20018;-81
2023/01/13 00:50:16;;;;;;;2.63;0.70;;;;;;;9.23;100.00;99663.88;6125155;23;20025;-82
2023/01/13 00:52:42;;;;;;;2.45;0.70;;;;;;;8.67;100.00;99577.91;6125085;23;20024;-82
2023/01/13 00:55:09;;;;;;;1.17;0.38;;;;;;;8.87;100.00;99586.59;6125260;23;20097;-82
2023/01/13 00:57:36;;;;;;;1.98;0.65;;;;;;;8.85;100.00;99586.66;6124825;23;20026;-82
2023/01/13 01:00:03;;;;;;;3.35;0.60;;;;;;;8.99;100.00;99614.97;6124914;23;20022;-82
2023/01/13 01:02:30;;;;;;;1.73;0.75;;;;;;;8.93;100.00;99586.28;6124161;23;20043;-82
2023/01/13 01:04:58;;;;;;;1.58;0.60;;;;;;;8.99;100.00;99607.91;6125113;23;20077;-80
2023/01/13 01:07:25;;;;;;;0.65;0.52;;;;;;;9.07;100.00;99611.00;6124923;23;20056;-81
2023/01/13 01:09:52;;;;;;;2.28;0.70;;;;;;;8.79;100.00;99558.81;6124641;23;20029;-81
2023/01/13 01:12:18;;;;;;;2.10;0.70;;;;;;;9.09;100.00;99616.22;6124761;23;20041;-82
2023/01/13 01:14:45;;;;;;;3.25;0.80;;;;;;;8.59;100.00;99535.25;6124274;23;20017;-82
2023/01/13 01:17:12;;;;;;;1.23;0.60;;;;;;;9.22;100.00;99638.41;6124001;23;20021;-81
2023/01/13 01:19:39;;;;;;;0.98;0.40;;;;;;;8.67;100.00;99551.53;6123989;23;20028;-81
2023/01/13 01:22:05;;;;;;;1.52;0.50;;;;;;;8.58;100.00;99537.97;6123928;23;20033;-81
2023/01/13 01:24:32;;;;;;;0.50;0.40;;;;;;;8.54;100.00;99529.34;6124131;23;20018;-81
2023/01/13 01:26:59;;;;;;;1.55;0.65;;;;;;;9.04;100.00;99616.44;6124311;23;20474;-81
2023/01/13 01:29:26;;;;;;;1.35;0.47;;;;;;;8.88;100.00;99599.72;6124445;23;20483;-82
2023/01/13 01:31:52;;;;;;;1.20;0.40;;;;;;;8.43;100.00;99510.59;6131315;23;20025;-84
2023/01/13 01:34:19;;;;;;;3.30;0.70;;;;;;;9.08;100.00;99625.91;6126488;23;20024;-82
2023/01/13 01:36:46;;;;;;;3.95;0.60;;;;;;;9.05;100.00;99615.50;6132705;23;20093;-84
2023/01/13 01:39:12;;;;;;;0.98;0.40;;;;;;;9.34;100.00;99673.88;6126514;23;20073;-82
2023/01/13 01:43:57;;;;;;;2.50;0.45;;;;;;;8.88;100.00;99588.28;6126993;23;20024;-81
2023/01/13 01:44:41;;;;;;;0.80;0.40;;;;;;;9.44;100.00;99675.91;6129982;23;20056;-81
2023/01/13 01:47:16;;;;;;;3.45;0.60;;;;;;;8.88;100.00;99589.16;6131724;23;20092;-79
2023/01/13 01:49:45;;;;;;;1.60;0.50;;;;;;;8.93;100.00;99591.56;6129142;23;20018;-81
2023/01/13 01:52:22;;;;;;;2.38;1.15;;;;;;;9.40;100.00;99653.25;6127695;23;20068;-79
2023/01/13 01:55:03;;;;;;;3.10;0.60;;;;;;;9.12;100.00;99608.13;6126300;23;20046;-81
2023/01/13 01:57:33;;;;;;;0.75;0.45;;;;;;;9.49;100.00;99662.47;6103445;23;20017;-79
2023/01/13 02:00:00;;;;;;;1.48;0.60;;;;;;;7.79;100.00;99384.69;6125894;23;20041;-83
2023/01/13 02:02:29;;;;;;;2.03;0.63;;;;;;;8.30;100.00;99462.88;6127075;23;20427;-80
2023/01/13 02:04:56;;;;;;;3.20;0.93;;;;;;;8.88;100.00;99544.25;6123390;23;20088;-80
2023/01/13 02:07:26;;;;;;;2.15;0.50;;;;;;;9.20;100.00;99605.91;6124083;23;20045;-81
2023/01/13 02:09:55;;;;;;;0.70;0.40;;;;;;;8.55;100.00;99475.66;6124016;23;20094;-80
2023/01/13 02:12:33;;;;;;;1.10;0.40;;;;;;;9.46;100.00;99644.13;6124132;23;20022;-80
2023/01/13 02:15:06;;;;;;;1.42;0.68;;;;;;;8.91;100.00;99567.88;6125134;23;20024;-82
2023/01/13 02:17:51;;;;;;;1.15;0.50;;;;;;;9.47;100.00;99646.69;6099526;23;20021;-82
2023/01/13 02:20:33;;;;;;;2.65;0.80;;;;;;;9.49;100.00;99642.19;6125238;23;20477;-81
2023/01/13 02:26:43;;;;;;;3.38;0.50;;;;;;;9.48;100.00;99640.47;6124937;23;20453;-80
2023/01/13 02:32:32;;;;;;;4.22;0.50;;;;;;;9.09;100.00;99593.28;6124217;23;20020;-81
2023/01/13 02:35:09;;;;;;;0.73;0.50;;;;;;;9.28;100.00;99621.38;6123602;23;20114;-81
2023/01/13 02:37:39;;;;;;;0.90;0.40;;;;;;;9.24;100.00;99622.47;6124081;23;20029;-82
2023/01/13 02:40:06;;;;;;;0.93;0.40;;;;;;;9.48;100.00;99637.81;6124497;23;20026;-82
2023/01/13 02:45:28;;;;;;;2.47;0.80;;;;;;;9.49;100.00;99628.13;6123715;23;20100;-81
2023/01/13 02:47:58;;;;;;;0.70;0.50;;;;;;;9.17;100.00;99565.59;6125461;23;20034;-82
2023/01/13 02:50:34;;;;;;;0.45;0.40;;;;;;;9.51;100.00;99620.97;6124409;23;20357;-82
2023/01/13 02:53:07;;;;;;;3.50;0.75;;;;;;;8.78;100.00;99506.97;6124611;23;20071;-81
2023/01/13 02:55:38;;;;;;;4.32;0.57;;;;;;;9.14;100.00;99558.69;6124793;23;20041;-81
2023/01/13 02:58:09;;;;;;;1.75;0.40;;;;;;;9.38;100.00;99604.06;6124253;23;20018;-81
2023/01/13 03:00:36;;;;;;;1.73;0.30;;;;;;;9.26;100.00;99576.53;6097952;23;20120;-81
2023/01/13 03:03:03;;;;;;;0.82;0.40;;;;;;;9.09;100.00;99550.19;6123179;23;20338;-81
2023/01/13 03:05:32;;;;;;;1.05;0.32;;;;;;;9.46;100.00;99596.56;6122126;23;20100;-86
2023/01/13 03:08:10;;;;;;;0.80;0.70;;;;;;;9.55;100.00;99621.66;6123569;23;20230;-82
2023/01/13 03:10:53;;;;;;;2.67;0.45;;;;;;;9.06;100.00;99522.16;6124032;23;20081;-81
2023/01/13 03:13:34;;;;;;;0.73;0.20;;;;;;;9.60;100.00;99609.03;6123584;23;20021;-80
2023/01/13 03:16:20;;;;;;;1.38;0.50;;;;;;;9.29;100.00;99549.94;6124146;23;20022;-81
2023/01/13 03:19:06;;;;;;;0.52;0.30;;;;;;;9.65;100.00;99606.97;6123730;23;20036;-80
2023/01/13 03:21:51;;;;;;;1.13;0.30;;;;;;;9.62;100.00;99608.00;6124198;23;20022;-81
2023/01/13 03:24:31;;;;;;;1.48;0.32;;;;;;;9.63;100.00;99604.41;6123532;23;20018;-81
2023/01/13 03:27:02;;;;;;;0.80;0.32;;;;;;;9.69;100.00;99613.81;6123906;23;20199;-80
2023/01/13 03:29:40;;;;;;;1.20;0.40;;;;;;;9.41;100.00;99549.28;6124098;23;20053;-81
2023/01/13 03:32:15;;;;;;;1.55;0.30;;;;;;;9.68;100.00;99590.94;6125125;23;20022;-81
2023/01/13 03:34:48;;;;;;;0.82;0.38;;;;;;;9.09;100.00;99516.69;6125340;23;20017;-81
2023/01/13 03:37:22;;;;;;;1.08;0.40;;;;;;;8.81;100.00;99461.06;6124532;23;20626;-80
2023/01/13 03:39:56;;;;;;;0.88;0.30;;;;;;;9.44;100.00;99567.56;6123486;23;20021;-80
2023/01/13 03:42:27;;;;;;;0.68;0.30;;;;;;;9.62;100.00;99597.41;6121710;23;20022;-81
2023/01/13 03:45:03;;;;;;;;;;;;;;;9.67;100.00;99594.53;6123877;23;20357;-80
2023/01/13 03:47:45;;;;;;;2.65;0.38;;;;;;;9.21;100.00;99536.31;6124193;23;19917;-79
2023/01/13 03:50:18;;;;;;;0.65;0.30;;;;;;;9.52;100.00;99558.38;6123813;23;20097;-80
2023/01/13 03:53:08;;;;;;;0.73;0.40;;;;;;;9.81;100.00;99576.09;6124374;23;20478;-81
2023/01/13 03:55:41;;;;;;;0.50;0.40;;;;;;;9.49;100.00;99536.47;6129167;23;20022;-81
2023/01/13 03:58:13;;;;;;;1.05;0.30;;;;;;;9.35;100.00;99524.97;6132265;23;20022;-80
2023/01/13 04:00:51;;;;;;;1.65;0.28;;;;;;;9.51;100.00;99552.25;6130997;23;20112;-80
2023/01/13 04:03:45;;;;;;;0.63;0.30;;;;;;;9.72;100.00;99571.34;6123737;23;20026;-83
2023/01/13 04:06:15;;;;;;;0.47;0.30;;;;;;;9.76;100.00;99578.13;6092733;23;20018;-81
2023/01/13 04:08:50;;;;;;;0.98;0.47;;;;;;;9.53;100.00;99544.22;6124464;23;20101;-80
2023/01/13 04:11:25;;;;;;;0.32;0.30;;;;;;;9.29;100.00;99491.81;6123947;23;20473;-81
2023/01/13 04:13:53;;;;;;;0.50;0.30;;;;;;;8.89;100.00;99452.72;6124504;23;20423;-82
2023/01/13 04:16:20;;;;;;;1.15;0.30;;;;;;;9.64;100.00;99537.41;6125928;23;20109;-82
2023/01/13 04:18:49;;;;;;;0.82;0.40;;;;;;;9.44;100.00;99508.63;6125176;23;20018;-82
2023/01/13 04:21:15;;;;;;;0.60;0.30;;;;;;;9.27;100.00;99479.66;6125091;23;20024;-81
2023/01/13 04:23:42;;;;;;;0.70;0.30;;;;;;;9.00;100.00;99419.50;6125847;23;20085;-81
2023/01/13 04:26:08;;;;;;;1.05;0.47;;;;;;;9.02;100.00;99428.19;6125668;23;20105;-83
2023/01/13 04:28:35;;;;;;;0.40;0.20;;;;;;;9.74;100.00;99543.88;6125855;23;20074;-83
2023/01/13 04:31:02;;;;;;;0.30;0.20;;;;;;;9.23;100.00;99441.13;6126335;23;20018;-81
2023/01/13 04:33:28;;;;;;;0.63;0.40;;;;;;;9.14;100.00;99431.91;6129164;23;20028;-82
2023/01/13 04:35:55;;;;;;;0.10;0.10;;;;;;;9.86;100.00;99526.44;6137508;23;20385;-82
2023/01/13 04:38:22;;;;;;;0.20;0.20;;;;;;;9.24;100.00;99434.91;6138322;23;20037;-81
2023/01/13 04:40:48;;;;;;;1.00;0.30;;;;;;;8.71;100.00;99349.84;6135419;23;20032;-82
2023/01/13 04:43:15;;;;;;;1.00;0.20;;;;;;;9.35;100.00;99457.13;6138821;23;20022;-82
2023/01/13 04:45:43;;;;;;;0.25;0.10;;;;;;;9.58;100.00;99491.97;6134599;23;20022;-83
2023/01/13 04:48:10;;;;;;;1.10;0.30;;;;;;;9.28;100.00;99439.09;6125976;23;20018;-81
2023/01/13 04:50:36;;;;;;;0.57;0.30;;;;;;;9.54;100.00;99474.56;6125758;23;20024;-83
2023/01/13 04:53:03;;;;;;;1.50;0.20;;;;;;;9.24;100.00;99422.56;6126554;23;20022;-82
2023/01/13 04:55:30;;;;;;;1.17;0.45;;;;;;;9.01;100.00;99399.22;6125158;23;20116;-82
2023/01/13 04:58:05;;;;;;;0.30;0.20;;;;;;;9.87;100.00;99522.88;6125164;23;20159;-82
2023/01/13 05:00:33;;;;;;;0.77;0.20;;;;;;;9.16;100.00;99393.06;6125557;23;20360;-80
2023/01/13 05:02:59;;;;;;;1.27;0.20;;;;;;;9.76;100.00;99496.19;6125558;23;20033;-78
2023/01/13 05:05:29;;;;;;;0.65;0.20;;;;;;;9.87;100.00;99528.16;6125058;23;20021;-81
2023/01/13 05:07:56;;;;;;;0.20;0.20;;;;;;;9.28;100.00;99458.44;6125306;23;20022;-80
2023/01/13 05:10:23;;;;;;;1.38;0.20;;;;;;;9.58;100.00;99523.69;6125333;23;20024;-80
2023/01/13 05:18:20;;;;;;;1.67;0.35;;;;;;;9.52;100.00;99558.38;6132308;23;20029;-80
2023/01/13 05:20:48;;;;;;;0.95;0.32;;;;;;;9.43;100.00;99554.47;6128477;23;20022;-83
2023/01/13 05:26:00;;;;;;;0.45;0.43;;;;;;;9.34;100.00;99608.66;6126945;23;20022;-82
2023/01/13 05:28:31;;;;;;;0.63;0.40;;;;;;;9.18;100.00;99610.44;6125755;23;20465;-83
2023/01/13 05:30:57;;;;;;;1.85;0.50;;;;;;;8.36;100.00;99517.97;6124903;23;20021;-82
2023/01/13 05:33:24;;;;;;;2.15;0.50;;;;;;;8.87;100.00;99611.19;6124638;23;20022;-81
2023/01/13 05:35:51;;;;;;;0.45;0.30;;;;;;;8.84;100.00;99627.19;6124267;23;20022;-80
2023/01/13 05:38:17;;;;;;;0.70;0.30;;;;;;;8.53;100.00;99598.88;6098195;23;20043;-80
2023/01/13 05:43:36;;;;;;;0.60;0.30;;;;;;;7.99;100.00;99545.34;6124358;23;20049;-81
2023/01/13 05:46:06;;;;;;;1.50;0.30;;;;;;;8.40;100.00;99646.16;6123571;23;20502;-80
2023/01/13 05:48:36;;;;;;;1.27;0.28;;;;;;;8.09;100.00;99617.78;6123613;23;20025;-80
2023/01/13 05:51:13;;;;;;;0.40;0.20;;;;;;;8.31;100.00;99680.03;6124580;23;20018;-84
2023/01/13 05:53:41;;;;;;;1.45;0.30;;;;;;;7.94;100.00;99634.34;6124624;23;20046;-81
2023/01/13 05:56:09;;;;;;;1.08;0.30;;;;;;;8.27;100.00;99705.69;6124285;23;20048;-82
2023/01/13 05:58:36;;;;;;;1.48;0.40;;;;;;;7.05;100.00;99507.78;6125389;23;20101;-80
2023/01/13 06:01:05;;;;;;;2.08;0.30;;;;;;;7.82;100.00;99644.63;6124138;23;20021;-82
2023/01/13 06:03:32;;;;;;;2.03;0.22;;;;;;;7.74;100.00;99640.56;6123687;23;20033;-83
2023/01/13 06:06:00;;;;;;;1.10;0.30;;;;;;;7.67;100.00;99633.03;6122367;23;20033;-81
2023/01/13 06:08:28;;;;;;;1.45;0.30;;;;;;;7.78;100.00;99683.44;6123787;23;20024;-81
2023/01/13 06:10:55;;;;;;;1.30;0.30;;;;;;;6.66;100.00;99494.66;6125361;23;20076;-79
2023/01/13 06:13:22;;;;;;;1.00;0.40;;;;;;;5.84;100.00;99366.88;6124143;23;20022;-81
2023/01/13 06:15:48;;;;;;;0.85;0.30;;;;;;;7.39;100.00;99650.13;6097574;23;20384;-82
2023/01/13 06:18:15;;;;;;;2.20;0.43;;;;;;;6.78;100.00;99535.34;6122843;23;20073;-80
2023/01/13 06:20:41;;;;;;;1.60;0.20;;;;;;;6.74;100.00;99539.06;6124085;23;20080;-82
2023/01/13 06:23:10;;;;;;;0.93;0.30;;;;;;;7.48;100.00;99664.63;6124234;23;20082;-80
2023/01/13 06:25:57;;;;;;;2.05;0.30;;;;;;;7.52;100.00;99682.03;6124200;23;20014;-81
2023/01/13 06:28:24;;;;;;;2.30;0.45;;;;;;;7.15;100.00;99609.09;6131225;23;20019;-79
2023/01/13 06:30:56;;;;;;;2.55;0.40;;;;;;;7.15;100.00;99608.25;6113154;23;20022;-82
2023/01/13 06:33:28;;;;;;;1.25;0.50;;;;;;;7.63;100.00;99703.47;6126188;23;20340;-81
2023/01/13 06:36:00;;;;;;;2.00;0.50;;;;;;;7.34;100.00;99636.31;6125196;23;20321;-79
2023/01/13 06:38:32;;;;;;;4.45;0.82;;;;;;;7.67;100.00;99701.53;6123893;23;20113;-79
2023/01/13 06:40:59;;;;;;;2.33;0.32;;;;;;;6.82;100.00;99564.09;6123237;23;20021;-79
2023/01/13 06:43:25;;;;;;;1.95;0.50;;;;;;;7.22;100.00;99589.47;6123536;23;20078;-79
2023/01/13 06:45:54;;;;;;;0.73;0.30;;;;;;;7.76;100.00;99658.94;6122565;23;20088;-81
2023/01/13 06:48:24;;;;;;;1.25;0.22;;;;;;;6.94;100.00;99531.09;6122413;23;20110;-80
2023/01/13 06:50:50;;;;;;;2.97;0.60;;;;;;;7.05;100.00;99518.31;6122253;23;20017;-78
2023/01/13 06:53:18;;;;;;;2.92;0.50;;;;;;;7.28;100.00;99547.03;6121958;23;20032;-79
2023/01/13 06:55:45;;;;;;;0.68;0.35;;;;;;;7.54;100.00;99613.47;6122577;23;20084;-79
2023/01/13 06:58:12;;;;;;;1.85;0.40;;;;;;;7.60;100.00;99629.81;6123283;23;20096;-81
2023/01/13 07:00:38;;;;;;;1.40;0.50;;;;;;;7.24;100.00;99570.97;6122087;23;20028;-80
2023/01/13 07:03:15;;;;;;;1.13;0.40;;;;;;;7.67;100.00;99654.97;6123562;23;20089;-80
2023/01/13 07:05:49;;;;;;;2.60;0.52;;;;;;;7.62;100.00;99637.66;6122968;23;20053;-81
2023/01/13 07:08:16;;;;;;;0.95;0.43;;;;;;;6.18;100.00;99403.06;6123360;23;20022;-81
2023/01/13 07:10:42;;;;;;;2.55;0.50;;;;;;;7.74;100.00;99656.38;6095548;23;20018;-81
2023/01/13 07:15:56;;;;;;;1.10;0.40;;;;;;;7.34;100.00;99588.91;6123086;23;20029;-81
2023/01/13 07:18:30;;;;;;;3.42;0.55;;;;;;;6.84;100.00;99499.09;6123327;23;20093;-81
2023/01/13 07:21:08;;;;;;;2.92;0.40;;;;;;;7.49;100.00;99610.19;6123724;23;20022;-79
2023/01/13 07:23:39;;;;;;;3.00;0.50;;;;;;;7.91;100.00;99702.16;6136750;23;20040;-80
2023/01/13 07:26:08;;;;;;;0.93;0.30;;;;;;;6.98;100.00;99544.03;6135794;23;20026;-79
2023/01/13 07:28:35;;;;;;;3.58;0.60;;;;;;;6.50;100.00;99478.72;6139225;23;20313;-80
2023/01/13 07:31:12;;;;;;;2.38;0.47;;;;;;;7.78;100.00;99708.94;6135671;23;20136;-81
2023/01/13 07:33:42;;;;;;;1.65;0.50;;;;;;;7.28;100.00;99614.66;6127167;23;20373;-80
2023/01/13 07:36:09;;;;;;;1.20;0.50;;;;;;;7.26;100.00;99638.41;6126303;23;20028;-80
2023/01/13 07:38:38;;;;;;;1.90;0.50;;;;;;;6.97;100.00;99575.69;6126720;23;20050;-79
2023/01/13 07:43:51;;;;;;;0.60;0.47;;;;;;;7.53;100.00;99689.00;6123650;23;20018;-80
2023/01/13 07:46:18;;;;;;;2.58;0.30;;;;;;;7.61;100.00;99710.56;6124875;23;20024;-80
2023/01/13 07:48:46;;;;;;;0.93;0.30;;;;;;;7.03;100.00;99641.25;6124181;23;20117;-81
2023/01/13 07:51:13;;;;;;;2.22;0.40;;;;;;;7.54;100.00;99726.75;6124503;23;20018;-80
2023/01/13 07:53:40;;;;;;;2.38;0.30;;;;;;;6.96;100.00;99642.41;6099434;23;20044;-82
2023/01/13 07:56:07;;;;;;;2.35;0.50;;;;;;;6.42;100.00;99558.88;6127186;23;20025;-81
2023/01/13 07:58:35;;;;;;;3.75;0.52;;;;;;;7.54;100.00;99743.41;6129066;23;20026;-80
2023/01/13 08:01:12;;;;;;;2.03;0.40;;;;;;;6.70;100.00;99596.22;6128397;23;20488;-81
2023/01/13 08:03:41;;;;;;;4.72;0.65;;;;;;;7.08;100.00;99670.88;6126723;23;20468;-81
2023/01/13 08:06:09;;;;;;;0.80;0.40;;;;;;;7.38;100.00;99722.16;6126476;23;20014;-80
2023/01/13 08:08:36;;;;;;;0.47;0.40;;;;;;;7.25;100.00;99694.63;6125997;23;20024;-80
2023/01/13 08:11:05;;;;;;;2.40;0.60;;;;;;;7.27;100.00;99705.97;6125659;23;20453;-81
2023/01/13 08:13:32;;;;;;;2.55;0.60;;;;;;;6.72;100.00;99612.78;6124908;23;20080;-80
2023/01/13 08:16:01;;;;;;;4.30;0.68;;;;;;;7.11;100.00;99681.22;6125343;23;20014;-82
2023/01/13 08:18:31;;;;;;;2.47;0.70;;;;;;;7.52;100.00;99729.44;6125835;23;20021;-82
2023/01/13 08:21:07;;;;;;;1.67;0.57;;;;;;;7.39;100.00;99702.81;6125778;23;20022;-81
2023/01/13 08:23:34;;;;;;;2.13;0.57;;;;;;;7.06;100.00;99656.91;6125456;23;20018;-81
2023/01/13 08:26:03;;;;;;;2.28;0.50;;;;;;;7.68;100.00;99750.69;6125223;23;20093;-80
2023/01/13 08:28:30;;;;;;;2.60;0.50;;;;;;;7.64;100.00;99739.44;6125049;23;20491;-81
2023/01/13 08:31:01;;;;;;;1.40;0.40;;;;;;;7.63;100.00;99739.50;6123344;23;20025;-80
2023/01/13 08:33:28;;;;;;;2.30;0.47;;;;;;;7.67;100.00;99744.56;6124872;23;20057;-82
2023/01/13 08:35:55;;;;;;;1.38;0.50;;;;;;;7.80;100.00;99768.56;6124287;23;20041;-81
2023/01/13 08:38:23;;;;;;;1.73;0.40;;;;;;;7.48;100.00;99711.19;6125924;23;20022;-82
2023/01/13 08:40:49;;;;;;;2.10;0.22;;;;;;;7.88;100.00;99790.16;6125403;23;20024;-80
2023/01/13 08:43:16;;;;;;;1.70;0.30;;;;;;;7.90;100.00;99780.41;6125301;23;20022;-81
2023/01/13 08:45:43;;;;;;;1.58;0.47;;;;;;;7.89;100.00;99789.22;6126495;23;20101;-81
2023/01/13 08:48:10;;;;;;;0.70;0.40;;;;;;;7.31;100.00;99693.53;6126248;23;20028;-83
2023/01/13 08:50:37;;;;;;;1.02;0.60;;;;;;;7.73;100.00;99754.81;6101258;23;20018;-84
2023/01/13 08:53:03;;;;;;;2.08;0.65;;;;;;;7.26;100.00;99654.22;6127944;23;20056;-82
2023/01/13 08:55:30;;;;;;;3.85;1.35;;;;;;;7.56;100.00;99699.38;6127729;23;20081;-83
2023/01/13 08:57:57;;;;;;;2.15;0.70;;;;;;;7.13;100.00;99642.53;6127589;23;20088;-82
2023/01/13 09:00:41;;;;;;;2.25;0.47;;;;;;;7.76;100.00;99753.81;6125521;23;20363;-82
2023/01/13 09:03:07;;;;;;;2.60;0.50;;;;;;;7.98;100.00;99791.47;6125850;23;20128;-82
2023/01/13 09:05:35;;;;;;;3.15;0.60;;;;;;;8.02;100.00;99792.19;6125913;23;20658;-82
2023/01/13 09:08:02;;;;;;;2.22;0.70;;;;;;;7.60;100.00;99743.13;6127037;23;20017;-82
2023/01/13 09:10:29;;;;;;;3.22;0.85;;;;;;;7.82;100.00;99779.06;6126781;23;20357;-82
2023/01/13 09:13:11;;;;;;;2.05;0.63;;;;;;;7.06;100.00;99662.19;6126657;23;20022;-84
2023/01/13 09:15:46;;;;;;;3.95;0.60;;;;;;;6.39;100.00;99565.13;6128749;23;20018;-84
2023/01/13 09:18:13;;;;;;;1.63;0.60;;;;;;;7.28;100.00;99686.59;6131604;23;20018;-84
2023/01/13 09:20:40;;;;;;;3.20;0.52;;;;;;;7.10;100.00;99642.66;6131211;23;20033;-83
2023/01/13 09:23:07;;;;;;;2.17;0.60;;;;;;;7.01;100.00;99645.72;6131399;23;20022;-85
2023/01/13 09:25:36;;;;;;;2.00;0.70;;;;;;;8.16;100.00;99841.66;6103962;23;20067;-85
2023/01/13 09:28:04;;;;;;;2.90;0.50;;;;;;;6.51;100.00;99551.44;6129809;23;20018;-86
2023/01/13 09:30:32;;;;;;;5.15;0.88;;;;;;;6.89;100.00;99612.06;6129659;23;20022;-84
2023/01/13 09:35:44;;;;;;;4.65;0.60;;;;;;;6.97;100.00;99608.13;6129127;23;20018;-87
2023/01/13 09:38:11;;;;;;;4.15;0.80;;;;;;;7.99;100.00;99777.34;6130985;23;20029;-86
2023/01/13 09:40:42;;;;;;;4.05;0.73;;;;;;;6.81;100.00;99574.69;6132490;23;20046;-86
2023/01/13 09:46:46;;;;;;;5.22;0.80;;;;;;;7.26;100.00;99612.09;6133851;23;20025;-86
2023/01/13 09:49:26;;;;;;;3.92;0.77;;;;;;;8.09;100.00;99739.06;6133499;23;20021;-86
2023/01/13 09:52:01;;;;;;;2.63;0.57;;;;;;;8.86;100.00;99839.19;6133983;23;20018;-85
2023/01/13 09:54:50;;;;;;;3.90;0.73;;;;;;;8.96;100.00;99853.66;6137817;23;20081;-86
2023/01/13 09:57:19;;;;;;;1.83;0.70;;;;;;;8.57;100.00;99794.88;6134834;23;20022;-87
2023/01/13 09:59:47;;;;;;;3.22;1.00;;;;;;;7.91;100.00;99684.56;6147839;23;20005;-85
2023/01/13 10:02:33;;;;;;;5.75;0.95;;;;;;;7.14;100.00;99580.19;6150614;23;20061;-84
2023/01/13 10:05:02;;;;;;;4.75;1.15;;;;;;;9.00;100.00;99871.06;6148797;23;20038;-88
2023/01/13 10:07:34;;;;;;;4.13;0.90;;;;;;;8.46;100.00;99776.06;6142669;23;20022;-88
2023/01/13 10:10:15;;;;;;;4.95;0.75;;;;;;;8.99;100.00;99855.28;6143974;23;20082;-85
2023/01/13 10:15:45;;;;;;;5.70;1.05;;;;;;;8.85;100.00;99853.31;6140133;23;20018;-85
2023/01/13 10:18:31;;;;;;;6.43;1.05;;;;;;;8.85;100.00;99849.81;6140051;23;20033;-85
2023/01/13 10:21:29;;;;;;;4.10;1.02;;;;;;;8.77;100.00;99864.25;6134285;23;20457;-84
2023/01/13 10:24:06;;;;;;;4.07;0.75;;;;;;;8.20;100.00;99740.34;6128881;23;20460;-84
2023/01/13 10:26:56;;;;;;;4.05;1.00;;;;;;;7.49;100.00;99620.72;6133082;23;20017;-85
2023/01/13 10:29:27;;;;;;;5.43;1.00;;;;;;;6.85;100.00;99524.47;6132259;23;20018;-84
2023/01/13 10:31:56;;;;;;;5.00;1.35;;;;;;;7.20;100.00;99575.53;6134512;23;20017;-87
2023/01/13 10:34:27;;;;;;;6.32;1.00;;;;;;;7.17;100.00;99540.56;6131887;23;20104;-87
2023/01/13 10:36:59;;;;;;;6.68;1.40;;;;;;;7.64;100.00;99625.25;6130977;23;20040;-86
2023/01/13 10:39:26;;;;;;;7.13;0.90;;;;;;;7.42;100.00;99546.38;6130994;23;20038;-85
2023/01/13 10:42:04;;;;;;;7.28;1.30;;;;;;;8.55;100.00;99723.69;6129003;23;20049;-84
2023/01/13 10:44:31;;;;;;;8.65;1.27;;;;;;;7.34;100.00;99501.97;6128115;23;20031;-86
2023/01/13 10:46:58;;;;;;;7.30;1.00;;;;;;;9.41;100.00;99850.53;6127831;23;20021;-86
2023/01/13 10:49:27;;;;;;;10.18;1.30;;;;;;;8.50;100.00;99653.63;6127468;23;20029;-87
2023/01/13 10:51:53;;;;;;;5.85;1.05;;;;;;;8.58;100.00;99691.03;6100111;23;20121;-87
2023/01/13 10:54:22;;;;;;;6.28;1.02;;;;;;;9.62;100.00;99842.41;6128389;23;20075;-88
2023/01/13 10:57:14;;;;;;;4.55;1.42;;;;;;;9.67;100.00;99841.25;6108451;23;20033;-88
2023/01/13 10:59:42;;;;;;;5.38;1.00;;;;;;;9.41;100.00;99805.59;6134442;23;20029;-87
2023/01/13 11:02:17;;;;;;;5.47;1.10;;;;;;;9.49;100.00;99836.91;6138337;23;20058;-85
2023/01/13 11:04:51;;;;;;;7.38;1.30;;;;;;;9.60;100.00;99839.84;6145943;23;20025;-87
2023/01/13 11:07:30;;;;;;;5.07;1.00;;;;;;;9.63;100.00;99828.25;6106661;23;20058;-86
2023/01/13 11:10:23;;;;;;;6.22;1.38;;;;;;;9.67;100.00;99833.31;6148177;23;20036;-85
2023/01/13 11:13:12;;;;;;;7.63;1.25;;;;;;;9.13;100.00;99778.84;6118508;23;20025;-86
2023/01/13 11:16:04;;;;;;;5.88;1.00;;;;;;;9.27;100.00;99808.09;6117704;23;20036;-82
2023/01/13 11:18:36;;;;;;;4.03;0.95;;;;;;;9.52;100.00;99846.47;6117764;23;20018;-83
2023/01/13 11:21:35;;;;;;;4.60;1.30;;;;;;;9.63;100.00;99849.41;6116274;23;20089;-85
2023/01/13 11:24:19;;;;;;;6.85;1.52;;;;;;;9.60;100.00;99808.13;6029927;23;20051;-84
2023/01/13 11:27:11;;;;;;;6.50;1.15;;;;;;;9.89;100.00;99840.97;6105828;23;20026;-85
2023/01/13 11:30:08;;;;;;;3.53;1.08;;;;;;;9.69;100.00;99843.81;6099905;23;20145;-84
2023/01/13 11:32:44;;;;;;;8.60;1.38;;;;;;;9.41;100.00;99847.88;6105309;23;20073;-84
2023/01/13 11:35:20;;;;;;;7.45;1.30;;;;;;;9.19;100.00;99839.31;6101288;23;20022;-84
2023/01/13 11:38:02;;;;;;;5.78;1.27;;;;;;;8.82;100.00;99794.53;6104026;23;20018;-84
2023/01/13 11:40:40;;;;;;;3.63;0.70;;;;;;;9.21;100.00;99869.16;6111639;23;20057;-83
2023/01/13 11:43:40;;;;;;;2.65;0.70;;;;;;;7.25;100.00;99572.66;6112285;23;20437;-83
2023/01/13 11:46:09;;;;;;;5.88;1.13;;;;;;;8.18;100.00;99723.75;6108807;23;20014;-85
2023/01/13 11:48:41;;;;;;;5.05;0.90;;;;;;;8.17;100.00;99737.88;6107605;23;20498;-86
2023/01/13 11:51:13;;;;;;;6.90;1.27;;;;;;;9.05;100.00;99870.84;6082355;23;20019;-86
2023/01/13 11:53:59;;;;;;;4.50;1.08;;;;;;;8.64;100.00;99765.50;6106739;23;20073;-85
2023/01/13 11:56:37;;;;;;;7.82;1.35;;;;;;;9.51;100.00;99885.25;6106858;23;20025;-84
2023/01/13 11:59:14;;;;;;;5.35;1.13;;;;;;;9.68;100.00;99872.03;6104116;23;20018;-84
2023/01/13 12:02:19;;;;;;;9.18;1.35;;;;;;;9.67;100.00;99877.41;6103501;23;20390;-87
2023/01/13 12:05:05;;;;;;;7.55;2.30;;;;;;;9.79;100.00;99866.19;6103907;23;20030;-85
2023/01/13 12:07:59;;;;;;;5.93;0.90;;;;;;;9.84;100.00;99869.44;6105295;23;20038;-86
2023/01/13 12:10:47;;;;;;;5.95;0.98;;;;;;;9.01;95.48;99719.59;6102526;23;20018;-85
2023/01/13 12:13:33;;;;;;;5.53;1.40;;;;;;;9.94;95.20;99868.03;6103656;23;20022;-86
2023/01/13 12:16:23;;;;;;;7.82;1.20;;;;;;;10.07;92.94;99863.78;6102935;23;20014;-86
2023/01/13 12:18:50;;;;;;;7.35;1.30;;;;;;;10.08;88.86;99860.19;6099230;23;20049;-85
2023/01/13 12:21:27;;;;;;;5.50;1.02;;;;;;;9.99;87.65;99849.28;6099420;23;20102;-87
2023/01/13 12:24:05;;;;;;;9.52;1.30;;;;;;;10.02;91.38;99864.97;6096916;23;20018;-85
2023/01/13 12:26:39;;;;;;;5.15;1.20;;;;;;;9.34;95.86;99821.81;6098358;23;20101;-84
2023/01/13 12:29:17;;;;;;;9.20;1.23;;;;;;;9.42;100.00;99869.88;6096995;23;20104;-87
2023/01/13 12:31:47;;;;;;;9.02;1.98;;;;;;;9.06;100.00;99865.47;6096257;23;20349;-84
2023/01/13 12:34:36;;;;;;;7.53;1.67;;;;;;;9.16;100.00;99865.88;6097022;23;20029;-85